sensor_id;sensor_type;location;lat;lon;timestamp;pressure;altitude;pressure_sealevel;temperature;humidity
47670;BME280;33408;52.062;11.722;2023-04-02T00:01:25;100718.72;;;3.13;100.00
47670;BME280;33408;52.062;11.722;2023-04-02T00:04:11;100726.28;;;3.03;100.00
47670;BME280;33408;52.062;11.722;2023-04-02T00:06:38;100729.69;;;3.04;100.00
47670;BME280;33408;52.062;11.722;2023-04-02T00:09:25;100733.13;;;3.04;100.00
47670;BME280;33408;52.062;11.722;2023-04-02T00:11:56;100736.50;;;3.02;100.00
47670;BME280;33408;52.062;11.722;2023-04-02T00:14:26;100740.72;;;2.98;100.00
47670;BME280;33408;52.062;11.722;2023-04-02T00:16:55;100744.19;;;3.02;100.00
47670;BME280;33408;52.062;11.722;2023-04-02T00:19:28;100751.06;;;3.04;100.00
47670;BME280;33408;52.062;11.722;2023-04-02T00:21:56;100754.47;;;3.06;100.00
47670;BME280;33408;52.062;11.722;2023-04-02T00:24:24;100756.13;;;3.01;100.00
47670;BME280;33408;52.062;11.722;2023-04-02T00:26:52;100758.59;;;2.94;100.00
47670;BME280;33408;52.062;11.722;2023-04-02T00:29:20;100767.22;;;3.00;100.00
47670;BME280;33408;52.062;11.722;2023-04-02T00:31:49;100768.91;;;2.98;100.00
47670;BME280;33408;52.062;11.722;2023-04-02T00:34:20;100780.81;;;2.98;100.00
47670;BME280;33408;52.062;11.722;2023-04-02T00:36:47;100769.75;;;2.99;100.00
47670;BME280;33408;52.062;11.722;2023-04-02T00:39:19;100779.91;;;2.92;100.00
47670;BME280;33408;52.062;11.722;2023-04-02T00:41:47;100789.28;;;2.90;100.00
47670;BME280;33408;52.062;11.722;2023-04-02T00:44:31;100789.34;;;2.97;100.00
47670;BME280;33408;52.062;11.722;2023-04-02T00:47:02;100801.94;;;2.81;100.00
47670;BME280;33408;52.062;11.722;2023-04-02T00:49:36;100804.59;;;2.89;100.00
47670;BME280;33408;52.062;11.722;2023-04-02T00:52:05;100808.81;;;2.84;100.00
47670;BME280;33408;52.062;11.722;2023-04-02T00:54:38;100808.81;;;2.84;100.00
47670;BME280;33408;52.062;11.722;2023-04-02T00:57:13;100809.69;;;2.86;100.00
47670;BME280;33408;52.062;11.722;2023-04-02T00:59:50;100825.84;;;2.83;100.00
47670;BME280;33408;52.062;11.722;2023-04-02T01:02:23;100828.31;;;2.76;100.00
47670;BME280;33408;52.062;11.722;2023-04-02T01:04:53;100819.91;;;2.84;100.00
47670;BME280;33408;52.062;11.722;2023-04-02T01:07:28;100825.84;;;2.80;100.00
47670;BME280;33408;52.062;11.722;2023-04-02T01:10:13;100836.75;;;2.70;100.00
47670;BME280;33408;52.062;11.722;2023-04-02T01:12:49;100836.06;;;2.82;100.00
47670;BME280;33408;52.062;11.722;2023-04-02T01:15:24;100839.25;;;2.65;100.00
47670;BME280;33408;52.062;11.722;2023-04-02T01:18:12;100854.75;;;2.74;100.00
47670;BME280;33408;52.062;11.722;2023-04-02T01:20:58;100851.97;;;2.62;100.00
47670;BME280;33408;52.062;11.722;2023-04-02T01:23:34;100855.47;;;2.66;100.00
47670;BME280;33408;52.062;11.722;2023-04-02T01:26:09;100863.25;;;2.73;100.00
47670;BME280;33408;52.062;11.722;2023-04-02T01:28:54;100862.28;;;2.67;100.00
47670;BME280;33408;52.062;11.722;2023-04-02T01:31:24;100858.88;;;2.66;100.00
47670;BME280;33408;52.062;11.722;2023-04-02T01:33:52;100869.25;;;2.74;100.00
47670;BME280;33408;52.062;11.722;2023-04-02T01:36:22;100870.06;;;2.71;100.00
47670;BME280;33408;52.062;11.722;2023-04-02T01:39:00;100885.22;;;2.61;100.00
47670;BME280;33408;52.062;11.722;2023-04-02T01:41:32;100890.31;;;2.59;100.00
47670;BME280;33408;52.062;11.722;2023-04-02T01:44:04;100895.56;;;2.67;100.00
47670;BME280;33408;52.062;11.722;2023-04-02T01:46:35;100892.97;;;2.64;100.00
47670;BME280;33408;52.062;11.722;2023-04-02T01:49:11;100907.38;;;2.59;100.00
47670;BME280;33408;52.062;11.722;2023-04-02T01:51:41;100904.81;;;2.59;100.00
47670;BME280;33408;52.062;11.722;2023-04-02T01:54:07;100908.31;;;2.64;100.00
47670;BME280;33408;52.062;11.722;2023-04-02T01:56:34;100912.50;;;2.59;100.00
47670;BME280;33408;52.062;11.722;2023-04-02T01:59:03;100917.59;;;2.57;100.00
47670;BME280;33408;52.062;11.722;2023-04-02T02:01:34;100920.06;;;2.52;100.00
47670;BME280;33408;52.062;11.722;2023-04-02T02:04:02;100925.25;;;2.55;100.00
47670;BME280;33408;52.062;11.722;2023-04-02T02:06:29;100935.47;;;2.55;100.00
47670;BME280;33408;52.062;11.722;2023-04-02T02:08:59;100940.44;;;2.48;100.00
47670;BME280;33408;52.062;11.722;2023-04-02T02:11:30;100944.84;;;2.55;100.00
47670;BME280;33408;52.062;11.722;2023-04-02T02:13:59;100933.81;;;2.56;100.00
47670;BME280;33408;52.062;11.722;2023-04-02T02:16:28;100933.69;;;2.50;100.00
47670;BME280;33408;52.062;11.722;2023-04-02T02:18:58;100949.88;;;2.49;100.00
47670;BME280;33408;52.062;11.722;2023-04-02T02:21:32;100945.72;;;2.55;100.00
47670;BME280;33408;52.062;11.722;2023-04-02T02:24:03;100952.38;;;2.47;100.00
47670;BME280;33408;52.062;11.722;2023-04-02T02:26:31;100952.28;;;2.41;100.00
47670;BME280;33408;52.062;11.722;2023-04-02T02:29:02;100953.22;;;2.46;100.00
47670;BME280;33408;52.062;11.722;2023-04-02T02:31:32;100960.84;;;2.42;100.00
47670;BME280;33408;52.062;11.722;2023-04-02T02:34:03;100964.50;;;2.58;100.00
47670;BME280;33408;52.062;11.722;2023-04-02T02:36:36;100968.72;;;2.54;100.00
47670;BME280;33408;52.062;11.722;2023-04-02T02:39:12;100966.91;;;2.48;100.00
47670;BME280;33408;52.062;11.722;2023-04-02T02:41:44;100980.50;;;2.46;100.00
47670;BME280;33408;52.062;11.722;2023-04-02T02:44:16;100986.63;;;2.54;100.00
47670;BME280;33408;52.062;11.722;2023-04-02T02:46:49;100988.09;;;2.41;100.00
47670;BME280;33408;52.062;11.722;2023-04-02T02:49:20;100987.44;;;2.51;100.00
47670;BME280;33408;52.062;11.722;2023-04-02T02:51:53;100986.56;;;2.51;100.00
47670;BME280;33408;52.062;11.722;2023-04-02T02:54:23;100990.91;;;2.53;100.00
47670;BME280;33408;52.062;11.722;2023-04-02T02:56:54;101001.00;;;2.47;100.00
47670;BME280;33408;52.062;11.722;2023-04-02T02:59:22;101007.84;;;2.47;100.00
47670;BME280;33408;52.062;11.722;2023-04-02T03:01:51;101010.53;;;2.54;100.00
47670;BME280;33408;52.062;11.722;2023-04-02T03:04:21;101005.44;;;2.58;100.00
47670;BME280;33408;52.062;11.722;2023-04-02T03:06:50;101012.31;;;2.59;100.00
47670;BME280;33408;52.062;11.722;2023-04-02T03:09:21;101010.41;;;2.48;100.00
47670;BME280;33408;52.062;11.722;2023-04-02T03:11:58;101016.28;;;2.43;100.00
47670;BME280;33408;52.062;11.722;2023-04-02T03:14:31;101027.41;;;2.45;100.00
47670;BME280;33408;52.062;11.722;2023-04-02T03:17:05;101029.22;;;2.50;100.00
47670;BME280;33408;52.062;11.722;2023-04-02T03:19:37;101034.38;;;2.52;100.00
47670;BME280;33408;52.062;11.722;2023-04-02T03:22:07;101044.47;;;2.46;100.00
47670;BME280;33408;52.062;11.722;2023-04-02T03:24:40;101043.81;;;2.54;100.00
47670;BME280;33408;52.062;11.722;2023-04-02T03:27:14;101052.16;;;2.46;100.00
47670;BME280;33408;52.062;11.722;2023-04-02T03:29:44;101062.38;;;2.46;100.00
47670;BME280;33408;52.062;11.722;2023-04-02T03:32:19;101075.19;;;2.46;100.00
47670;BME280;33408;52.062;11.722;2023-04-02T03:34:48;101074.53;;;2.54;100.00
47670;BME280;33408;52.062;11.722;2023-04-02T03:37:20;101078.69;;;2.51;100.00
47670;BME280;33408;52.062;11.722;2023-04-02T03:39:51;101084.72;;;2.53;100.00
47670;BME280;33408;52.062;11.722;2023-04-02T03:42:22;101090.78;;;2.58;100.00
47670;BME280;33408;52.062;11.722;2023-04-02T03:44:54;101097.50;;;2.51;100.00
47670;BME280;33408;52.062;11.722;2023-04-02T03:47:28;101100.09;;;2.53;100.00
47670;BME280;33408;52.062;11.722;2023-04-02T03:49:59;101098.28;;;2.49;100.00
47670;BME280;33408;52.062;11.722;2023-04-02T03:52:28;101104.31;;;2.52;100.00
47670;BME280;33408;52.062;11.722;2023-04-02T03:54:58;101103.41;;;2.49;100.00
47670;BME280;33408;52.062;11.722;2023-04-02T03:57:28;101118.06;;;2.58;100.00
47670;BME280;33408;52.062;11.722;2023-04-02T04:00:01;101119.59;;;2.49;100.00
47670;BME280;33408;52.062;11.722;2023-04-02T04:02:39;101120.50;;;2.50;100.00
47670;BME280;33408;52.062;11.722;2023-04-02T04:05:22;101136.63;;;2.47;100.00
47670;BME280;33408;52.062;11.722;2023-04-02T04:07:52;101141.75;;;2.47;100.00
47670;BME280;33408;52.062;11.722;2023-04-02T04:10:23;101146.03;;;2.48;100.00
47670;BME280;33408;52.062;11.722;2023-04-02T04:12:53;101163.88;;;2.45;100.00
47670;BME280;33408;52.062;11.722;2023-04-02T04:15:24;101163.84;;;2.44;100.00
47670;BME280;33408;52.062;11.722;2023-04-02T04:17:58;101159.63;;;2.46;100.00
47670;BME280;33408;52.062;11.722;2023-04-02T04:20:30;101166.47;;;2.47;100.00
47670;BME280;33408;52.062;11.722;2023-04-02T04:23:14;101172.38;;;2.44;100.00
47670;BME280;33408;52.062;11.722;2023-04-02T04:25:42;101172.53;;;2.50;100.00
47670;BME280;33408;52.062;11.722;2023-04-02T04:28:15;101188.63;;;2.45;100.00
47670;BME280;33408;52.062;11.722;2023-04-02T04:30:50;101196.31;;;2.46;100.00
47670;BME280;33408;52.062;11.722;2023-04-02T04:33:22;101198.84;;;2.46;100.00
47670;BME280;33408;52.062;11.722;2023-04-02T04:35:52;101204.13;;;2.52;100.00
47670;BME280;33408;52.062;11.722;2023-04-02T04:38:28;101215.91;;;2.46;100.00
47670;BME280;33408;52.062;11.722;2023-04-02T04:41:00;101223.38;;;2.36;100.00
47670;BME280;33408;52.062;11.722;2023-04-02T04:43:35;101220.88;;;2.40;100.00
47670;BME280;33408;52.062;11.722;2023-04-02T04:46:06;101236.25;;;2.40;100.00
47670;BME280;33408;52.062;11.722;2023-04-02T04:48:38;101237.13;;;2.40;100.00
47670;BME280;33408;52.062;11.722;2023-04-02T04:51:09;101237.19;;;2.43;100.00
47670;BME280;33408;52.062;11.722;2023-04-02T04:53:45;101238.03;;;2.42;100.00
47670;BME280;33408;52.062;11.722;2023-04-02T04:56:16;101244.03;;;2.44;100.00
47670;BME280;33408;52.062;11.722;2023-04-02T04:58:48;101256.72;;;2.40;100.00
47670;BME280;33408;52.062;11.722;2023-04-02T05:01:20;101266.16;;;2.42;100.00
47670;BME280;33408;52.062;11.722;2023-04-02T05:03:54;101272.84;;;2.35;100.00
47670;BME280;33408;52.062;11.722;2023-04-02T05:06:33;101278.69;;;2.31;100.00
47670;BME280;33408;52.062;11.722;2023-04-02T05:09:06;101282.22;;;2.36;100.00
47670;BME280;33408;52.062;11.722;2023-04-02T05:11:37;101283.97;;;2.37;100.00
47670;BME280;33408;52.062;11.722;2023-04-02T05:14:07;101289.03;;;2.36;100.00
47670;BME280;33408;52.062;11.722;2023-04-02T05:16:41;101297.41;;;2.29;100.00
47670;BME280;33408;52.062;11.722;2023-04-02T05:19:16;101293.16;;;2.29;100.00
47670;BME280;33408;52.062;11.722;2023-04-02T05:21:47;101310.25;;;2.30;100.00
47670;BME280;33408;52.062;11.722;2023-04-02T05:24:38;101305.28;;;2.38;100.00
47670;BME280;33408;52.062;11.722;2023-04-02T05:27:16;101313.69;;;2.32;100.00
47670;BME280;33408;52.062;11.722;2023-04-02T05:29:47;101317.97;;;2.32;100.00
47670;BME280;33408;52.062;11.722;2023-04-02T05:32:19;101311.94;;;2.31;100.00
47670;BME280;33408;52.062;11.722;2023-04-02T05:34:49;101313.81;;;2.37;100.00
47670;BME280;33408;52.062;11.722;2023-04-02T05:37:19;101324.97;;;2.41;100.00
47670;BME280;33408;52.062;11.722;2023-04-02T05:39:50;101324.38;;;2.51;100.00
47670;BME280;33408;52.062;11.722;2023-04-02T05:42:19;101332.66;;;2.41;100.00
47670;BME280;33408;52.062;11.722;2023-04-02T05:45:02;101337.03;;;2.45;100.00
47670;BME280;33408;52.062;11.722;2023-04-02T05:47:31;101334.47;;;2.46;100.00
47670;BME280;33408;52.062;11.722;2023-04-02T05:50:22;101336.31;;;2.50;100.00
47670;BME280;33408;52.062;11.722;2023-04-02T05:52:54;101341.47;;;2.52;100.00
47670;BME280;33408;52.062;11.722;2023-04-02T05:55:39;101356.06;;;2.56;100.00
47670;BME280;33408;52.062;11.722;2023-04-02T05:58:15;101360.25;;;2.54;100.00
47670;BME280;33408;52.062;11.722;2023-04-02T06:00:52;101359.38;;;2.52;100.00
47670;BME280;33408;52.062;11.722;2023-04-02T06:03:24;101371.41;;;2.54;100.00
47670;BME280;33408;52.062;11.722;2023-04-02T06:05:59;101377.13;;;2.46;100.00
47670;BME280;33408;52.062;11.722;2023-04-02T06:08:30;101368.78;;;2.53;100.00
47670;BME280;33408;52.062;11.722;2023-04-02T06:11:06;101379.00;;;2.51;100.00
47670;BME280;33408;52.062;11.722;2023-04-02T06:13:34;101376.56;;;2.56;100.00
47670;BME280;33408;52.062;11.722;2023-04-02T06:16:01;101385.09;;;2.57;100.00
47670;BME280;33408;52.062;11.722;2023-04-02T06:18:29;101398.16;;;2.67;100.00
47670;BME280;33408;52.062;11.722;2023-04-02T06:20:59;101403.94;;;2.60;100.00
47670;BME280;33408;52.062;11.722;2023-04-02T06:23:31;101401.41;;;2.62;100.00
47670;BME280;33408;52.062;11.722;2023-04-02T06:26:01;101410.75;;;2.60;100.00
47670;BME280;33408;52.062;11.722;2023-04-02T06:28:33;101424.38;;;2.59;100.00
47670;BME280;33408;52.062;11.722;2023-04-02T06:31:02;101430.28;;;2.56;100.00
47670;BME280;33408;52.062;11.722;2023-04-02T06:33:31;101427.81;;;2.61;100.00
47670;BME280;33408;52.062;11.722;2023-04-02T06:36:00;101439.84;;;2.63;100.00
47670;BME280;33408;52.062;11.722;2023-04-02T06:38:30;101446.00;;;2.70;100.00
47670;BME280;33408;52.062;11.722;2023-04-02T06:40:58;101460.28;;;2.62;100.00
47670;BME280;33408;52.062;11.722;2023-04-02T06:43:30;101447.72;;;2.71;100.00
47670;BME280;33408;52.062;11.722;2023-04-02T06:46:03;101458.22;;;2.80;100.00
47670;BME280;33408;52.062;11.722;2023-04-02T06:48:34;101463.38;;;2.83;100.00
47670;BME280;33408;52.062;11.722;2023-04-02T06:51:05;101462.38;;;2.77;100.00
47670;BME280;33408;52.062;11.722;2023-04-02T06:53:35;101461.78;;;2.87;100.00
47670;BME280;33408;52.062;11.722;2023-04-02T06:56:04;101466.94;;;2.88;100.00
47670;BME280;33408;52.062;11.722;2023-04-02T06:58:32;101475.50;;;2.89;100.00
47670;BME280;33408;52.062;11.722;2023-04-02T07:00:58;101476.50;;;2.96;100.00
47670;BME280;33408;52.062;11.722;2023-04-02T07:03:27;101482.31;;;2.88;100.00
47670;BME280;33408;52.062;11.722;2023-04-02T07:05:54;101479.75;;;2.88;100.00
47670;BME280;33408;52.062;11.722;2023-04-02T07:08:23;101487.47;;;2.90;100.00
47670;BME280;33408;52.062;11.722;2023-04-02T07:10:49;101494.34;;;2.92;100.00
47670;BME280;33408;52.062;11.722;2023-04-02T07:13:17;101492.00;;;3.00;100.00
47670;BME280;33408;52.062;11.722;2023-04-02T07:15:45;101501.25;;;2.95;100.00
47670;BME280;33408;52.062;11.722;2023-04-02T07:18:21;101504.94;;;3.06;100.00
47670;BME280;33408;52.062;11.722;2023-04-02T07:20:48;101522.66;;;2.97;100.00
47670;BME280;33408;52.062;11.722;2023-04-02T07:23:15;101515.34;;;3.13;100.00
47670;BME280;33408;52.062;11.722;2023-04-02T07:25:43;101524.38;;;2.98;100.00
47670;BME280;33408;52.062;11.722;2023-04-02T07:28:11;101536.38;;;3.01;100.00
47670;BME280;33408;52.062;11.722;2023-04-02T07:30:38;101523.03;;;3.13;100.00
47670;BME280;33408;52.062;11.722;2023-04-02T07:33:05;101523.84;;;3.12;100.00
47670;BME280;33408;52.062;11.722;2023-04-02T07:35:32;101533.03;;;3.03;100.00
47670;BME280;33408;52.062;11.722;2023-04-02T07:37:58;101530.75;;;3.14;100.00
47670;BME280;33408;52.062;11.722;2023-04-02T07:40:25;101536.63;;;3.10;100.00
47670;BME280;33408;52.062;11.722;2023-04-02T07:42:53;101542.88;;;3.21;100.00
47670;BME280;33408;52.062;11.722;2023-04-02T07:45:20;101548.69;;;3.14;100.00
47670;BME280;33408;52.062;11.722;2023-04-02T07:47:46;101554.88;;;3.22;100.00
47670;BME280;33408;52.062;11.722;2023-04-02T07:50:13;101557.53;;;3.25;100.00
47670;BME280;33408;52.062;11.722;2023-04-02T07:52:40;101560.75;;;3.18;100.00
47670;BME280;33408;52.062;11.722;2023-04-02T07:55:08;101564.19;;;3.20;100.00
47670;BME280;33408;52.062;11.722;2023-04-02T07:57:37;101571.25;;;3.29;100.00
47670;BME280;33408;52.062;11.722;2023-04-02T08:00:08;101572.97;;;3.28;100.00
47670;BME280;33408;52.062;11.722;2023-04-02T08:02:36;101572.13;;;3.29;100.00
47670;BME280;33408;52.062;11.722;2023-04-02T08:05:03;101586.81;;;3.35;100.00
47670;BME280;33408;52.062;11.722;2023-04-02T08:07:31;101584.13;;;3.31;100.00
47670;BME280;33408;52.062;11.722;2023-04-02T08:09:57;101592.63;;;3.29;100.00
47670;BME280;33408;52.062;11.722;2023-04-02T08:12:24;101592.47;;;3.23;100.00
47670;BME280;33408;52.062;11.722;2023-04-02T08:14:50;101610.59;;;3.31;100.00
47670;BME280;33408;52.062;11.722;2023-04-02T08:17:18;101608.16;;;3.36;100.00
47670;BME280;33408;52.062;11.722;2023-04-02T08:19:45;101608.78;;;3.25;100.00
47670;BME280;33408;52.062;11.722;2023-04-02T08:22:12;101624.19;;;3.27;100.00
47670;BME280;33408;52.062;11.722;2023-04-02T08:24:39;101609.66;;;3.27;100.00
47670;BME280;33408;52.062;11.722;2023-04-02T08:27:11;101618.34;;;3.33;100.00
47670;BME280;33408;52.062;11.722;2023-04-02T08:29:39;101620.28;;;3.43;100.00
47670;BME280;33408;52.062;11.722;2023-04-02T08:32:05;101622.31;;;3.55;100.00
47670;BME280;33408;52.062;11.722;2023-04-02T08:34:33;101631.16;;;3.68;100.00
47670;BME280;33408;52.062;11.722;2023-04-02T08:37:00;101625.88;;;3.61;100.00
47670;BME280;33408;52.062;11.722;2023-04-02T08:39:26;101638.81;;;3.66;100.00
47670;BME280;33408;52.062;11.722;2023-04-02T08:41:59;101637.38;;;3.77;100.00
47670;BME280;33408;52.062;11.722;2023-04-02T08:44:38;101644.81;;;3.67;100.00
47670;BME280;33408;52.062;11.722;2023-04-02T08:47:08;101641.53;;;3.72;100.00
47670;BME280;33408;52.062;11.722;2023-04-02T08:49:41;101650.31;;;3.82;100.00
47670;BME280;33408;52.062;11.722;2023-04-02T08:52:16;101658.06;;;3.83;100.00
47670;BME280;33408;52.062;11.722;2023-04-02T08:54:45;101656.72;;;3.99;100.00
47670;BME280;33408;52.062;11.722;2023-04-02T08:57:18;101657.28;;;3.88;100.00
47670;BME280;33408;52.062;11.722;2023-04-02T08:59:48;101663.47;;;3.96;100.00
47670;BME280;33408;52.062;11.722;2023-04-02T09:02:26;101671.63;;;4.16;100.00
47670;BME280;33408;52.062;11.722;2023-04-02T09:04:57;101665.88;;;3.88;100.00
47670;BME280;33408;52.062;11.722;2023-04-02T09:07:25;101673.00;;;4.01;100.00
47670;BME280;33408;52.062;11.722;2023-04-02T09:09:53;101679.13;;;4.07;100.00
47670;BME280;33408;52.062;11.722;2023-04-02T09:12:23;101681.72;;;4.08;100.00
47670;BME280;33408;52.062;11.722;2023-04-02T09:15:00;101678.44;;;4.14;100.00
47670;BME280;33408;52.062;11.722;2023-04-02T09:17:29;101683.50;;;4.11;100.00
47670;BME280;33408;52.062;11.722;2023-04-02T09:20:01;101687.81;;;4.13;100.00
47670;BME280;33408;52.062;11.722;2023-04-02T09:22:31;101701.94;;;3.96;100.00
47670;BME280;33408;52.062;11.722;2023-04-02T09:25:00;101700.25;;;4.33;100.00
47670;BME280;33408;52.062;11.722;2023-04-02T09:27:29;101707.63;;;4.19;100.00
47670;BME280;33408;52.062;11.722;2023-04-02T09:29:59;101699.31;;;4.29;100.00
47670;BME280;33408;52.062;11.722;2023-04-02T09:32:47;101709.69;;;4.34;100.00
47670;BME280;33408;52.062;11.722;2023-04-02T09:35:16;101706.00;;;4.61;100.00
47670;BME280;33408;52.062;11.722;2023-04-02T09:37:44;101708.19;;;4.44;100.00
47670;BME280;33408;52.062;11.722;2023-04-02T09:40:22;101708.53;;;4.59;100.00
47670;BME280;33408;52.062;11.722;2023-04-02T09:43:01;101713.53;;;4.53;100.00
47670;BME280;33408;52.062;11.722;2023-04-02T09:45:28;101723.63;;;4.45;100.00
47670;BME280;33408;52.062;11.722;2023-04-02T09:47:56;101729.78;;;4.52;100.00
47670;BME280;33408;52.062;11.722;2023-04-02T09:50:30;101730.13;;;4.67;100.00
47670;BME280;33408;52.062;11.722;2023-04-02T09:52:57;101730.91;;;4.65;100.00
47670;BME280;33408;52.062;11.722;2023-04-02T09:55:25;101730.53;;;4.87;100.00
47670;BME280;33408;52.062;11.722;2023-04-02T09:58:10;101733.41;;;5.01;100.00
47670;BME280;33408;52.062;11.722;2023-04-02T10:00:37;101734.75;;;4.84;100.00
47670;BME280;33408;52.062;11.722;2023-04-02T10:03:23;101738.41;;;4.95;100.00
47670;BME280;33408;52.062;11.722;2023-04-02T10:06:07;101741.88;;;4.97;100.00
47670;BME280;33408;52.062;11.722;2023-04-02T10:08:35;101758.84;;;4.89;100.00
47670;BME280;33408;52.062;11.722;2023-04-02T10:11:05;101753.44;;;5.18;100.00
47670;BME280;33408;52.062;11.722;2023-04-02T10:13:39;101755.41;;;5.31;100.00
47670;BME280;33408;52.062;11.722;2023-04-02T10:16:11;101758.41;;;5.53;100.00
47670;BME280;33408;52.062;11.722;2023-04-02T10:18:43;101758.59;;;5.63;100.00
47670;BME280;33408;52.062;11.722;2023-04-02T10:21:16;101763.22;;;5.36;100.00
47670;BME280;33408;52.062;11.722;2023-04-02T10:23:44;101763.50;;;5.50;100.00
47670;BME280;33408;52.062;11.722;2023-04-02T10:26:32;101765.31;;;6.01;100.00
47670;BME280;33408;52.062;11.722;2023-04-02T10:29:09;101768.56;;;5.94;100.00
47670;BME280;33408;52.062;11.722;2023-04-02T10:31:44;101773.50;;;5.80;100.00
47670;BME280;33408;52.062;11.722;2023-04-02T10:34:19;101778.56;;;6.24;100.00
47670;BME280;33408;52.062;11.722;2023-04-02T10:36:52;101781.56;;;5.98;100.00
47670;BME280;33408;52.062;11.722;2023-04-02T10:39:22;101784.31;;;6.09;100.00
47670;BME280;33408;52.062;11.722;2023-04-02T10:41:56;101788.06;;;6.28;100.00
47670;BME280;33408;52.062;11.722;2023-04-02T10:44:35;101782.09;;;5.82;100.00
47670;BME280;33408;52.062;11.722;2023-04-02T10:47:18;101795.81;;;6.30;100.00
47670;BME280;33408;52.062;11.722;2023-04-02T10:49:59;101797.47;;;6.28;100.00
47670;BME280;33408;52.062;11.722;2023-04-02T10:52:37;101799.34;;;5.86;100.00
47670;BME280;33408;52.062;11.722;2023-04-02T10:55:12;101799.25;;;5.81;100.00
47670;BME280;33408;52.062;11.722;2023-04-02T10:57:42;101812.78;;;5.73;100.00
47670;BME280;33408;52.062;11.722;2023-04-02T11:00:17;101806.41;;;5.96;100.00
47670;BME280;33408;52.062;11.722;2023-04-02T11:02:50;101828.31;;;5.77;100.00
47670;BME280;33408;52.062;11.722;2023-04-02T11:05:21;101813.53;;;5.65;100.00
47670;BME280;33408;52.062;11.722;2023-04-02T11:07:57;101823.69;;;6.05;100.00
47670;BME280;33408;52.062;11.722;2023-04-02T11:10:25;101822.75;;;6.00;100.00
47670;BME280;33408;52.062;11.722;2023-04-02T11:12:57;101827.69;;;5.88;100.00
47670;BME280;33408;52.062;11.722;2023-04-02T11:15:28;101825.19;;;5.94;100.00
47670;BME280;33408;52.062;11.722;2023-04-02T11:17:55;101831.19;;;5.93;100.00
47670;BME280;33408;52.062;11.722;2023-04-02T11:20:43;101835.78;;;5.65;100.00
47670;BME280;33408;52.062;11.722;2023-04-02T11:23:26;101843.19;;;5.94;99.18
47670;BME280;33408;52.062;11.722;2023-04-02T11:29:00;101833.16;;;6.56;93.43
47670;BME280;33408;52.062;11.722;2023-04-02T11:31:27;101831.97;;;6.36;91.96
47670;BME280;33408;52.062;11.722;2023-04-02T11:33:54;101837.06;;;5.87;91.85
47670;BME280;33408;52.062;11.722;2023-04-02T11:39:51;101834.78;;;6.51;91.97
47670;BME280;33408;52.062;11.722;2023-04-02T11:42:26;101842.22;;;6.33;90.25
47670;BME280;33408;52.062;11.722;2023-04-02T11:44:55;101844.81;;;6.33;91.45
47670;BME280;33408;52.062;11.722;2023-04-02T11:47:24;101840.94;;;6.60;90.88
47670;BME280;33408;52.062;11.722;2023-04-02T11:50:03;101839.72;;;6.92;89.60
47670;BME280;33408;52.062;11.722;2023-04-02T11:52:49;101839.88;;;7.05;89.03
47670;BME280;33408;52.062;11.722;2023-04-02T11:55:24;101846.63;;;6.97;91.69
47670;BME280;33408;52.062;11.722;2023-04-02T11:58:06;101842.16;;;6.83;92.09
47670;BME280;33408;52.062;11.722;2023-04-02T12:01:23;101850.97;;;6.43;90.59
47670;BME280;33408;52.062;11.722;2023-04-02T12:04:27;101852.38;;;6.24;91.85
47670;BME280;33408;52.062;11.722;2023-04-02T12:07:13;101853.72;;;6.55;93.05
47670;BME280;33408;52.062;11.722;2023-04-02T12:09:48;101847.56;;;7.02;89.80
47670;BME280;33408;52.062;11.722;2023-04-02T12:12:25;101836.81;;;7.34;84.67
47670;BME280;33408;52.062;11.722;2023-04-02T12:14:54;101848.00;;;8.11;83.48
47670;BME280;33408;52.062;11.722;2023-04-02T12:17:25;101853.63;;;7.70;83.52
47670;BME280;33408;52.062;11.722;2023-04-02T12:19:55;101848.34;;;7.62;82.42
47670;BME280;33408;52.062;11.722;2023-04-02T12:22:23;101858.25;;;7.26;82.60
47670;BME280;33408;52.062;11.722;2023-04-02T12:24:53;101867.66;;;7.26;82.44
47670;BME280;33408;52.062;11.722;2023-04-02T12:27:24;101868.25;;;7.06;82.78
47670;BME280;33408;52.062;11.722;2023-04-02T12:29:52;101874.59;;;7.28;84.67
47670;BME280;33408;52.062;11.722;2023-04-02T12:32:23;101871.34;;;7.43;85.18
47670;BME280;33408;52.062;11.722;2023-04-02T12:34:51;101863.41;;;8.03;84.06
47670;BME280;33408;52.062;11.722;2023-04-02T12:37:21;101863.31;;;7.92;82.73
47670;BME280;33408;52.062;11.722;2023-04-02T12:39:53;101862.78;;;7.46;82.30
47670;BME280;33408;52.062;11.722;2023-04-02T12:42:30;101865.19;;;8.07;84.05
47670;BME280;33408;52.062;11.722;2023-04-02T12:44:57;101869.56;;;8.14;77.96
47670;BME280;33408;52.062;11.722;2023-04-02T12:47:24;101867.84;;;8.13;77.59
47670;BME280;33408;52.062;11.722;2023-04-02T12:49:52;101877.09;;;8.85;77.70
47670;BME280;33408;52.062;11.722;2023-04-02T12:52:21;101877.63;;;8.47;77.49
47670;BME280;33408;52.062;11.722;2023-04-02T12:54:54;101885.31;;;8.39;77.13
47670;BME280;33408;52.062;11.722;2023-04-02T13:00:35;101881.41;;;7.94;76.09
47670;BME280;33408;52.062;11.722;2023-04-02T13:03:15;101881.53;;;8.08;75.29
47670;BME280;33408;52.062;11.722;2023-04-02T13:05:45;101884.81;;;7.90;77.58
47670;BME280;33408;52.062;11.722;2023-04-02T13:08:16;101878.69;;;7.81;78.20
47670;BME280;33408;52.062;11.722;2023-04-02T13:10:43;101887.88;;;7.59;79.73
47670;BME280;33408;52.062;11.722;2023-04-02T13:13:14;101895.88;;;7.78;79.03
47670;BME280;33408;52.062;11.722;2023-04-02T13:15:43;101891.34;;;8.39;75.89